Aérodrome :
LOGIN :

S'inscrire | Disclaimer

   EN    FR    IT 

 










Légende :    VFR   VFR Marginal   IFR   IFR Intensif   IFR Très Intensif
Visi : 
Plafond : 
>= 8 km
>= 3000ft
5 à 8 km
1000 à 3000 ft
1500m à 5 km
500 à 1000 ft
800 à 1500m
200 à 500 ft
< 800m
< 200 ft
Symboles :   Orages  Brouillard  Fortes neiges  Fortes précipitations  Vent > 20 kt
SIGMETs :   Divers  Orages  Givrage  Turbulence  Onde Orograph.  Cendres Volcan.






- Altitude de l'aérodrome : 870 ft
- Code IATA : ETZ


LFJL - Metz Nancy Lorraine

DERNIER METAR :
  • 091900Z AUTO 02002KT 9999 FEW046 M00/M02 Q1004 TEMPO 0200 FZFG VV///

METARs EXPIRÉS :
  • 091830Z AUTO VRB02KT 9999 OVC043 M00/M02 Q1004 TEMPO 0200 FZFG VV///
  • 091800Z AUTO VRB02KT 9999 OVC039 M00/M01 Q1004 TEMPO 0200 FZFG VV///
  • 091730Z AUTO 01002KT CAVOK M01/M02 Q1004 TEMPO 0200 FZFG VV///
  • 091700Z AUTO 00000KT 9000 NSC M02/M03 Q1004 NOSIG
  • 091630Z AUTO VRB02KT CAVOK M01/M02 Q1003 NOSIG

TAF TAF LFJL
Valide du 09 à 18h jusqu'au 10 à 18h UTC


091700Z 0918/1018 01005KT 7000 NSC
TEMPO 0918/1011 3000 BR
PROB40
TEMPO 0918/1010 0200 FZFG VV///



MET'MAP, la Météo Aéronautique d'un coup d'oeil ! - Copyright ORBIFLY Décembre 2007 - Disclaimer

ORBIFLY MET'MAP TEAM :

Programmation & Développement : Alexandra Zaïnal
Sur une idée originale de : Baudouin d'Aumeries
Soutien technique & logistique : Manuel Goepfert
Assistance : Marc-Olivier Méhu




SOURCES & CREDITS :

   NOAA